Pohang Airport
RKTH : now visible

Airfield :











YOU CAN JOIN US ON...

 
LOGIN :

Register | Disclaimer

   EN    FR    IT 

 









Legend :    VFR   Marginal VFR   IFR   Intensive IFR   Very Intensive IFR
Visi :
Ceiling :
>= 8 km
>= 3000ft
5 to 8 km
1000 to 3000 ft
1500m to 5 km
500 to 1000 ft
800 to 1500m
200 to 500 ft
< 800m
< 200 ft
Symbols :   Thunderstorms  Fog  Heavy snow  Heavy precipitations  Wind > 20 kt






- Airport Elevation : 70 ft
- IATA code : KPO


RKTH - Pohang

CURRENT METAR :
  • 070300Z 04007KT CAVOK 25/16 Q1012 RMK SLP125

EXPIRED METARs :
  • 070200Z 15011KT CAVOK 22/16 Q1013 RMK SLP133

TAF TAF RKTH
Valid from the 07 at 00:00 until the 08 at 06:00 UTC


062300Z 0700/0806 03010KT 9999 SCT030 SCT200 TN18/0721Z TX30/0806Z
BECMG 0702/0703 15010G20KT
BECMG 0708/0709 15010KT
BECMG 0714/0715 24010KT
BECMG 0802/0803 15010G20KT
RKRR FIR / Asia



MET'MAP, your aeronautical weather chart ! - Copyright ORBIFLY December 2007 - Disclaimer

ORBIFLY MET'MAP TEAM :

Programming & Development : Alexandra Zaïnal
Concept & original design : Baudouin d'Aumeries
Assistance for programming : Marc-Olivier Méhu
Technical & hardware support : Manuel Goepfert

Contact : metmap@orbifly.com




SOURCES & CREDITS :

   NOAA       Earth
Advisory